Time;durP1;ratioP1;P1;durP2;ratioP2;P2;SDS_P1;SDS_P2;PMS_P1;PMS_P2;Temp;Humidity;BMP_temperature;BMP_pressure;BME280_temperature;BME280_humidity;BME280_pressure;Samples;Min_cycle;Max_cycle;Signal;HPM_P1;HPM_P2
2023/08/05 00:00:49;;;;;;;8.60;7.80;;;;;;;25.43;63.98;99333.28;106721;1267;59605;-40
2023/08/05 00:03:16;;;;;;;8.10;7.30;;;;;;;25.37;64.13;99332.48;106739;1264;73047;-40
2023/08/05 00:05:44;;;;;;;9.40;6.50;;;;;;;25.33;64.15;99335.83;106737;1267;67909;-40
2023/08/05 00:08:11;;;;;;;7.70;6.60;;;;;;;25.31;64.21;99334.71;106732;1267;72488;-40
2023/08/05 00:10:43;;;;;;;8.80;7.70;;;;;;;25.33;64.06;99334.91;106720;1266;60133;-40
2023/08/05 00:13:11;;;;;;;9.70;7.40;;;;;;;25.32;63.89;99331.35;106810;1267;60043;-40
2023/08/05 00:15:39;;;;;;;8.80;7.30;;;;;;;25.30;63.85;99328.44;106801;1266;71812;-40
2023/08/05 00:18:07;;;;;;;9.60;7.80;;;;;;;25.27;64.01;99329.49;106739;1264;67240;-40
2023/08/05 00:20:35;;;;;;;8.00;7.20;;;;;;;25.26;64.04;99326.09;106744;1264;71469;-40
2023/08/05 00:23:03;;;;;;;10.90;8.10;;;;;;;25.23;64.10;99325.42;106768;1266;60061;-39
2023/08/05 00:25:30;;;;;;;8.10;7.20;;;;;;;25.18;64.22;99327.96;106763;1264;59230;-40
2023/08/05 00:27:58;;;;;;;9.00;7.00;;;;;;;25.19;64.15;99326.15;106784;1266;73107;-39
2023/08/05 00:30:26;;;;;;;9.80;7.40;;;;;;;25.20;64.16;99326.00;106753;1266;68886;-40
2023/08/05 00:32:53;;;;;;;8.20;7.20;;;;;;;25.20;63.93;99323.88;106687;1267;71465;-40
2023/08/05 00:35:22;;;;;;;8.60;7.60;;;;;;;25.18;64.03;99324.72;106632;1269;60042;-40
2023/08/05 00:37:50;;;;;;;13.40;8.30;;;;;;;25.17;63.99;99321.70;106765;1267;60073;-39
2023/08/05 00:40:18;;;;;;;9.00;7.30;;;;;;;25.13;63.93;99324.53;106745;1267;73072;-40
2023/08/05 00:42:46;;;;;;;10.30;7.80;;;;;;;25.09;64.08;99320.98;106742;1270;67579;-39
2023/08/05 00:45:13;;;;;;;10.10;7.00;;;;;;;25.05;64.21;99326.55;106691;1267;73242;-40
2023/08/05 00:47:41;;;;;;;8.90;7.10;;;;;;;25.03;64.32;99319.79;106753;1267;61783;-39
2023/08/05 00:50:09;;;;;;;9.20;7.20;;;;;;;25.05;64.14;99325.02;106767;1269;60373;-39
2023/08/05 00:52:37;;;;;;;7.90;7.10;;;;;;;25.04;64.04;99322.75;106823;1267;73050;-40
2023/08/05 00:55:05;;;;;;;10.50;7.80;;;;;;;25.01;64.19;99319.89;106752;1266;67955;-40
2023/08/05 00:57:34;;;;;;;8.00;7.00;;;;;;;24.98;64.21;99314.94;106749;1266;73728;-39
2023/08/05 01:00:02;;;;;;;8.80;7.40;;;;;;;24.95;64.25;99315.54;106622;1267;60082;-39
2023/08/05 01:02:30;;;;;;;8.80;7.90;;;;;;;24.91;64.27;99320.38;106746;1265;59441;-39
2023/08/05 01:04:59;;;;;;;11.10;7.70;;;;;;;24.85;64.39;99316.84;106800;1266;71566;-40
2023/08/05 01:07:27;;;;;;;8.70;6.90;;;;;;;24.83;64.39;99321.16;106680;1267;67605;-40
2023/08/05 01:09:54;;;;;;;10.60;7.50;;;;;;;24.83;64.40;99326.14;106679;1267;71332;-39
2023/08/05 01:12:22;;;;;;;10.00;7.50;;;;;;;24.82;64.36;99325.00;106695;1266;59631;-39
2023/08/05 01:14:50;;;;;;;10.70;7.10;;;;;;;24.80;64.48;99325.38;106730;1267;59161;-40
2023/08/05 01:17:18;;;;;;;10.20;7.20;;;;;;;24.78;64.43;99328.31;106614;1272;72295;-40
2023/08/05 01:19:45;;;;;;;11.10;7.50;;;;;;;24.76;64.65;99330.77;106674;1266;67752;-41
2023/08/05 01:22:16;;;;;;;9.30;8.10;;;;;;;24.73;64.64;99326.79;106534;1269;71414;-41
2023/08/05 01:24:47;;;;;;;9.90;8.00;;;;;;;24.68;64.53;99327.41;106663;1268;60583;-41
2023/08/05 01:27:15;;;;;;;8.20;7.20;;;;;;;24.68;64.75;99328.70;106454;1264;60069;-41
2023/08/05 01:29:43;;;;;;;9.00;7.00;;;;;;;24.71;64.69;99330.90;106622;1267;73087;-41
2023/08/05 01:32:10;;;;;;;8.70;7.40;;;;;;;24.70;64.56;99329.11;106672;1269;67932;-41
2023/08/05 01:34:38;;;;;;;8.40;7.50;;;;;;;24.67;64.63;99331.11;106563;1270;72681;-41
2023/08/05 01:37:06;;;;;;;9.00;8.10;;;;;;;24.63;64.57;99335.37;106675;1266;59733;-41
2023/08/05 01:39:34;;;;;;;11.90;7.50;;;;;;;24.59;64.79;99339.48;106735;1269;60506;-41
2023/08/05 01:42:01;;;;;;;9.80;7.40;;;;;;;24.55;64.85;99344.50;106600;1265;71815;-41
2023/08/05 01:44:29;;;;;;;7.80;6.90;;;;;;;24.53;64.83;99345.60;106702;1269;67841;-41
2023/08/05 01:46:57;;;;;;;9.20;7.00;;;;;;;24.52;64.97;99344.05;106724;1267;72686;-41
2023/08/05 01:49:25;;;;;;;9.70;6.90;;;;;;;24.50;65.01;99338.80;106664;1267;60069;-41
2023/08/05 01:51:52;;;;;;;9.10;7.20;;;;;;;24.48;64.91;99347.36;106686;1269;59650;-42
2023/08/05 01:54:20;;;;;;;10.70;7.10;;;;;;;24.46;64.95;99354.88;106689;1269;72186;-41
2023/08/05 01:56:48;;;;;;;8.50;7.30;;;;;;;24.43;64.91;99353.65;106697;1264;67560;-41
2023/08/05 01:59:16;;;;;;;11.40;7.10;;;;;;;24.39;64.91;99356.98;106596;1269;72821;-41
2023/08/05 02:01:45;;;;;;;7.30;6.60;;;;;;;24.38;64.97;99351.95;106672;1268;60903;-41
2023/08/05 02:04:13;;;;;;;9.60;7.10;;;;;;;24.38;64.82;99352.33;106650;1269;60100;-40
2023/08/05 02:06:41;;;;;;;9.30;7.30;;;;;;;24.39;64.76;99359.84;106671;1267;73074;-41
2023/08/05 02:09:09;;;;;;;8.20;7.40;;;;;;;24.39;64.56;99358.48;106756;1269;66734;-41
2023/08/05 02:11:37;;;;;;;10.00;7.40;;;;;;;24.39;64.57;99363.27;106630;1267;71488;-41
2023/08/05 02:14:04;;;;;;;10.20;7.50;;;;;;;24.36;64.60;99368.46;106659;1272;59624;-41
2023/08/05 02:16:33;;;;;;;9.80;7.80;;;;;;;24.34;64.52;99370.16;106607;1270;59553;-41
2023/08/05 02:19:01;;;;;;;9.30;7.40;;;;;;;24.31;64.71;99374.16;106840;1266;72245;-41
2023/08/05 02:21:29;;;;;;;7.60;6.60;;;;;;;24.29;64.91;99371.14;106805;1264;67417;-41
2023/08/05 02:23:57;;;;;;;7.90;6.70;;;;;;;24.31;64.71;99370.80;106836;1264;71689;-41
2023/08/05 02:26:24;;;;;;;7.80;7.00;;;;;;;24.30;64.77;99375.27;106859;1266;59609;-41
2023/08/05 02:28:52;;;;;;;9.00;7.30;;;;;;;24.28;64.82;99378.92;106824;1266;59484;-42
2023/08/05 02:31:19;;;;;;;11.80;7.80;;;;;;;24.25;64.77;99376.00;106818;1267;73086;-41
2023/08/05 02:33:47;;;;;;;10.10;7.40;;;;;;;24.21;64.78;99374.55;106868;1265;67907;-41
2023/08/05 02:36:15;;;;;;;8.50;7.20;;;;;;;24.19;64.94;99378.30;106871;1265;71390;-40
2023/08/05 02:38:43;;;;;;;8.20;7.00;;;;;;;24.19;64.92;99377.19;106760;1266;60870;-40
2023/08/05 02:41:11;;;;;;;7.50;6.70;;;;;;;24.20;65.01;99378.00;106838;1260;60212;-41
2023/08/05 02:43:39;;;;;;;11.40;7.30;;;;;;;24.18;65.09;99381.09;106860;1266;73015;-41
2023/08/05 02:46:11;;;;;;;10.00;7.50;;;;;;;24.15;65.33;99377.70;106847;1264;66460;-41
2023/08/05 02:48:38;;;;;;;9.20;7.60;;;;;;;24.12;65.34;99376.27;106729;1269;72767;-40
2023/08/05 02:51:07;;;;;;;11.20;7.40;;;;;;;24.08;65.50;99376.52;106828;1264;59662;-39
2023/08/05 02:53:34;;;;;;;9.60;6.90;;;;;;;24.04;65.52;99380.14;106822;1266;60012;-40
2023/08/05 02:56:02;;;;;;;8.50;6.80;;;;;;;24.04;65.60;99385.27;106829;1266;72212;-39
2023/08/05 02:58:30;;;;;;;9.70;6.90;;;;;;;24.06;65.47;99388.30;106968;1261;67885;-39
2023/08/05 03:01:08;;;;;;;7.80;7.10;;;;;;;24.06;65.52;99385.22;106837;1266;72543;-39
2023/08/05 03:03:36;;;;;;;10.50;8.00;;;;;;;24.03;65.76;99387.54;106805;1263;60089;-39
2023/08/05 03:06:04;;;;;;;7.70;6.90;;;;;;;24.00;65.85;99391.77;107225;1257;59494;-39
2023/08/05 03:08:32;;;;;;;7.60;6.90;;;;;;;23.98;65.93;99395.71;107168;1257;73080;-40
2023/08/05 03:11:01;;;;;;;9.40;7.00;;;;;;;23.94;65.94;99399.74;107031;1263;67669;-40
2023/08/05 03:13:29;;;;;;;9.60;6.70;;;;;;;23.97;65.88;99397.80;106994;1257;71426;-40
2023/08/05 03:16:07;;;;;;;7.70;6.90;;;;;;;24.01;65.84;99392.54;107107;1262;59636;-40
2023/08/05 03:18:36;;;;;;;7.70;6.90;;;;;;;24.01;65.83;99389.77;107155;1257;59523;-39
2023/08/05 03:21:04;;;;;;;8.00;6.50;;;;;;;23.99;65.77;99389.27;107130;1257;71763;-39
2023/08/05 03:23:34;;;;;;;8.10;7.30;;;;;;;23.97;65.80;99382.13;106997;1263;66740;-39
2023/08/05 03:26:08;;;;;;;10.00;7.40;;;;;;;23.96;65.93;99378.63;107053;1262;72702;-40
2023/08/05 03:28:40;;;;;;;10.30;6.50;;;;;;;23.94;66.07;99377.25;107084;1257;61667;-40
2023/08/05 03:31:08;;;;;;;11.00;6.70;;;;;;;23.97;66.14;99374.71;107057;1258;59560;-40
2023/08/05 03:33:36;;;;;;;7.30;6.50;;;;;;;24.01;66.13;99374.95;107255;1263;71816;-40
2023/08/05 03:36:04;;;;;;;8.20;7.00;;;;;;;24.03;66.11;99374.09;107197;1257;66319;-39
2023/08/05 03:38:32;;;;;;;9.00;7.40;;;;;;;24.06;66.12;99374.48;107097;1262;72655;-39
2023/08/05 03:41:03;;;;;;;8.50;7.30;;;;;;;24.08;66.01;99376.53;106886;1263;60323;-39
2023/08/05 03:43:30;;;;;;;8.10;6.90;;;;;;;24.09;65.99;99374.59;107109;1257;60310;-39
2023/08/05 03:46:00;;;;;;;8.90;6.90;;;;;;;24.10;66.04;99375.67;107121;1257;72601;-39
2023/08/05 03:48:28;;;;;;;9.90;7.20;;;;;;;24.14;66.12;99380.18;107045;1263;66779;-39
2023/08/05 03:50:56;;;;;;;8.90;6.60;;;;;;;24.21;66.23;99371.34;106988;1261;72036;-39
2023/08/05 03:53:23;;;;;;;13.30;7.20;;;;;;;24.26;66.19;99365.77;107151;1258;60307;-39
2023/08/05 03:55:51;;;;;;;7.70;6.90;;;;;;;24.29;66.18;99358.54;107151;1258;60325;-40
2023/08/05 03:58:19;;;;;;;8.60;7.70;;;;;;;24.32;66.22;99358.02;107179;1257;72602;-39
2023/08/05 04:00:50;;;;;;;10.40;7.60;;;;;;;24.35;66.32;99357.84;107133;1257;66623;-39
2023/08/05 04:03:18;;;;;;;7.80;7.00;;;;;;;24.36;66.54;99355.11;107172;1260;72672;-39
2023/08/05 04:05:46;;;;;;;9.20;7.30;;;;;;;24.40;66.42;99358.34;107157;1257;60758;-39
2023/08/05 04:08:14;;;;;;;8.90;7.40;;;;;;;24.48;66.35;99359.64;107143;1262;60454;-39
2023/08/05 04:10:42;;;;;;;10.10;7.80;;;;;;;24.54;66.45;99360.41;106993;1258;73907;-39
2023/08/05 04:13:11;;;;;;;9.20;7.30;;;;;;;24.60;66.46;99364.88;107158;1258;66694;-39
2023/08/05 04:15:39;;;;;;;12.00;7.40;;;;;;;24.66;66.36;99362.45;107200;1262;71394;-39
2023/08/05 04:18:07;;;;;;;11.60;7.20;;;;;;;24.72;66.43;99360.96;107207;1257;61696;-39
2023/08/05 04:20:36;;;;;;;9.90;7.40;;;;;;;24.79;66.37;99361.70;106990;1257;60444;-40
2023/08/05 04:23:05;;;;;;;8.10;6.80;;;;;;;24.87;66.28;99358.77;107213;1257;74512;-40
2023/08/05 04:25:34;;;;;;;9.20;7.30;;;;;;;24.95;66.10;99357.00;106939;1258;67884;-40
2023/08/05 04:28:01;;;;;;;9.20;7.50;;;;;;;25.00;66.04;99359.73;107037;1257;73236;-40
2023/08/05 04:30:29;;;;;;;8.90;7.80;;;;;;;25.04;65.85;99360.17;107029;1258;60251;-40
2023/08/05 04:32:57;;;;;;;9.10;7.60;;;;;;;25.08;65.77;99362.06;107145;1257;60414;-40
2023/08/05 04:35:25;;;;;;;9.80;7.30;;;;;;;25.12;65.75;99361.98;107170;1263;73935;-40
2023/08/05 04:37:53;;;;;;;10.70;7.10;;;;;;;25.19;65.83;99363.52;107220;1258;68108;-40
2023/08/05 04:40:20;;;;;;;9.20;7.50;;;;;;;25.29;65.72;99361.22;107209;1257;72694;-40
2023/08/05 04:42:48;;;;;;;8.20;7.40;;;;;;;25.36;65.71;99363.71;107180;1256;60417;-40
2023/08/05 04:45:22;;;;;;;9.30;7.90;;;;;;;25.41;65.72;99367.85;107188;1263;60437;-41
2023/08/05 04:47:49;;;;;;;8.40;7.30;;;;;;;25.46;65.37;99367.42;107053;1257;73619;-39
2023/08/05 04:50:17;;;;;;;10.00;7.60;;;;;;;25.49;64.96;99365.62;107050;1258;67898;-39
2023/08/05 04:52:45;;;;;;;8.50;7.30;;;;;;;25.54;64.86;99364.11;107050;1257;73209;-39
2023/08/05 04:55:15;;;;;;;9.40;7.60;;;;;;;25.60;64.67;99367.71;107155;1257;60447;-39
2023/08/05 04:57:43;;;;;;;;;;;;;;;25.69;64.25;99360.14;107130;1257;60424;-39
2023/08/05 05:00:11;;;;;;;8.40;7.50;;;;;;;25.72;64.18;99364.21;107039;1257;73895;-40
2023/08/05 05:02:39;;;;;;;10.50;8.00;;;;;;;25.73;64.03;99356.54;107239;1257;66422;-40
2023/08/05 05:05:07;;;;;;;10.70;7.70;;;;;;;25.84;63.68;99367.73;107182;1257;72732;-40
2023/08/05 05:07:35;;;;;;;9.60;8.20;;;;;;;25.89;63.56;99368.95;107213;1257;60609;-40
2023/08/05 05:10:03;;;;;;;7.90;7.10;;;;;;;25.93;63.29;99371.63;107231;1257;60261;-40
2023/08/05 05:12:31;;;;;;;10.80;8.20;;;;;;;25.98;63.04;99373.64;107322;1261;73864;-40
2023/08/05 05:14:59;;;;;;;9.50;7.70;;;;;;;26.01;63.06;99374.02;107239;1257;68295;-40
2023/08/05 05:17:37;;;;;;;8.20;7.30;;;;;;;26.06;63.22;99371.14;107254;1260;72691;-40
2023/08/05 05:20:06;;;;;;;13.00;7.90;;;;;;;26.16;63.17;99368.61;107149;1258;60497;-40
2023/08/05 05:22:33;;;;;;;13.10;8.30;;;;;;;26.23;63.11;99367.21;107164;1258;60425;-40
2023/08/05 05:25:01;;;;;;;9.50;8.40;;;;;;;26.30;62.69;99359.29;107161;1257;73920;-40
2023/08/05 05:27:28;;;;;;;9.60;7.90;;;;;;;26.36;62.70;99355.54;107134;1257;67611;-40
2023/08/05 05:29:56;;;;;;;10.00;8.00;;;;;;;26.41;62.41;99359.30;107155;1256;71416;-40
2023/08/05 05:32:24;;;;;;;10.60;7.90;;;;;;;26.47;62.20;99360.99;107085;1257;60521;-40
2023/08/05 05:34:51;;;;;;;10.50;7.60;;;;;;;26.52;62.17;99363.30;107095;1257;60379;-40
2023/08/05 05:37:19;;;;;;;7.90;7.10;;;;;;;26.60;61.88;99363.88;107163;1255;73904;-39
2023/08/05 05:39:47;;;;;;;14.00;7.80;;;;;;;26.70;61.27;99367.20;107253;1257;67907;-40
2023/08/05 05:42:15;;;;;;;8.70;7.80;;;;;;;26.76;61.14;99363.81;107275;1257;72832;-40
2023/08/05 05:44:50;;;;;;;9.70;7.60;;;;;;;26.82;60.60;99364.40;107301;1260;60540;-40
2023/08/05 05:47:21;;;;;;;9.50;7.90;;;;;;;26.90;60.74;99363.84;107280;1257;60083;-40
2023/08/05 05:49:49;;;;;;;9.10;8.20;;;;;;;26.95;60.21;99365.95;107264;1256;72588;-40
2023/08/05 05:52:16;;;;;;;9.40;8.40;;;;;;;27.01;59.67;99366.15;107004;1257;68049;-39
2023/08/05 05:54:44;;;;;;;12.00;8.30;;;;;;;27.06;59.66;99362.97;107226;1258;72732;-39
2023/08/05 05:57:12;;;;;;;9.70;8.30;;;;;;;27.10;59.48;99368.48;107147;1258;60507;-39
2023/08/05 05:59:39;;;;;;;10.20;8.00;;;;;;;27.15;59.20;99369.05;107176;1255;60344;-40
2023/08/05 06:02:08;;;;;;;9.80;8.60;;;;;;;27.21;58.52;99369.48;107314;1257;73910;-40
2023/08/05 06:04:36;;;;;;;9.60;8.10;;;;;;;27.26;57.99;99362.65;107213;1260;67599;-40
2023/08/05 06:07:04;;;;;;;9.80;8.60;;;;;;;27.30;58.52;99359.10;107227;1257;72564;-40
2023/08/05 06:09:32;;;;;;;10.40;9.00;;;;;;;27.35;58.30;99361.98;107206;1257;60302;-40
2023/08/05 06:11:59;;;;;;;10.10;8.50;;;;;;;27.38;57.78;99361.25;107151;1257;60430;-40
2023/08/05 06:14:28;;;;;;;10.60;9.10;;;;;;;27.42;57.79;99360.89;107169;1255;73820;-40
2023/08/05 06:16:56;;;;;;;10.80;9.50;;;;;;;27.47;57.28;99359.73;107261;1256;66604;-40
2023/08/05 06:19:24;;;;;;;11.60;9.10;;;;;;;27.51;57.37;99362.18;107274;1256;72715;-40
2023/08/05 06:21:51;;;;;;;10.30;8.60;;;;;;;27.56;57.81;99357.06;107220;1257;60469;-40
2023/08/05 06:24:20;;;;;;;12.10;8.40;;;;;;;27.65;58.26;99359.12;107292;1257;60415;-40
2023/08/05 06:26:47;;;;;;;13.30;8.80;;;;;;;27.75;57.81;99360.36;107172;1257;73870;-40
2023/08/05 06:29:16;;;;;;;13.50;9.00;;;;;;;27.85;57.26;99357.29;107192;1257;68336;-40
2023/08/05 06:31:43;;;;;;;10.60;8.30;;;;;;;27.93;57.20;99352.64;107255;1257;72678;-40
2023/08/05 06:34:12;;;;;;;11.40;8.80;;;;;;;28.02;56.72;99350.16;107266;1257;60418;-40
2023/08/05 06:36:40;;;;;;;10.10;8.20;;;;;;;28.10;56.34;99346.17;107263;1257;60328;-40
2023/08/05 06:39:07;;;;;;;10.20;9.10;;;;;;;28.19;56.43;99354.42;107248;1256;72592;-40
2023/08/05 06:41:35;;;;;;;10.40;8.60;;;;;;;28.26;56.80;99354.42;107286;1256;67933;-39
2023/08/05 06:44:04;;;;;;;9.30;8.10;;;;;;;28.34;56.08;99356.10;107239;1257;72701;-40
2023/08/05 06:46:31;;;;;;;9.90;8.90;;;;;;;28.40;55.86;99350.38;107268;1257;60312;-40
2023/08/05 06:48:59;;;;;;;9.60;8.60;;;;;;;28.47;55.29;99345.88;107248;1256;60517;-40
2023/08/05 06:51:27;;;;;;;10.20;8.30;;;;;;;28.53;55.74;99345.33;107211;1257;73954;-40
2023/08/05 06:53:55;;;;;;;13.70;8.80;;;;;;;28.60;55.19;99347.15;107187;1256;67884;-40
2023/08/05 06:56:22;;;;;;;9.40;8.10;;;;;;;28.67;55.21;99346.47;107221;1256;73248;-40
2023/08/05 06:58:50;;;;;;;10.90;8.30;;;;;;;28.75;55.15;99350.35;107253;1257;60498;-40
2023/08/05 07:01:18;;;;;;;16.30;8.80;;;;;;;28.82;54.31;99352.26;107257;1257;60399;-40
2023/08/05 07:03:45;;;;;;;10.90;8.40;;;;;;;28.89;53.78;99350.89;107310;1256;73811;-40
2023/08/05 07:06:13;;;;;;;12.50;9.10;;;;;;;28.94;53.71;99344.23;107290;1259;68020;-39
2023/08/05 07:08:40;;;;;;;11.50;8.90;;;;;;;29.01;53.64;99341.33;107253;1260;72718;-40
2023/08/05 07:11:08;;;;;;;15.30;8.80;;;;;;;29.09;53.51;99342.46;107104;1256;60527;-40
2023/08/05 07:13:36;;;;;;;13.40;9.00;;;;;;;29.17;53.14;99342.92;107187;1256;59569;-40
2023/08/05 07:16:04;;;;;;;9.40;8.00;;;;;;;29.23;52.91;99339.20;107222;1256;73052;-40
2023/08/05 07:18:32;;;;;;;11.30;8.90;;;;;;;29.32;53.03;99337.14;107300;1256;67988;-40
2023/08/05 07:21:00;;;;;;;13.90;10.20;;;;;;;29.40;53.17;99332.30;107241;1257;73129;-40
2023/08/05 07:23:27;;;;;;;13.80;10.50;;;;;;;29.48;52.95;99332.75;107274;1256;59552;-40
2023/08/05 07:25:59;;;;;;;12.40;9.90;;;;;;;29.56;52.71;99331.83;107169;1257;60993;-40
2023/08/05 07:28:27;;;;;;;12.50;9.40;;;;;;;29.62;52.09;99325.80;107206;1257;73672;-40
2023/08/05 07:31:05;;;;;;;13.70;9.60;;;;;;;29.72;51.65;99327.19;107131;1260;67558;-41
2023/08/05 07:33:33;;;;;;;12.00;9.60;;;;;;;29.82;51.19;99328.98;107284;1257;73140;-41
2023/08/05 07:36:11;;;;;;;11.60;9.70;;;;;;;29.90;51.03;99334.92;107156;1257;60363;-40
2023/08/05 07:38:40;;;;;;;11.90;10.10;;;;;;;29.96;51.26;99340.18;107259;1256;60450;-40
2023/08/05 07:41:12;;;;;;;10.80;8.90;;;;;;;30.02;51.62;99342.95;107273;1257;73858;-41
2023/08/05 07:43:41;;;;;;;14.10;8.50;;;;;;;30.12;51.74;99346.66;107312;1256;66289;-41
2023/08/05 07:46:13;;;;;;;10.80;7.70;;;;;;;30.23;51.20;99348.39;107280;1256;72668;-40
2023/08/05 07:48:42;;;;;;;10.50;7.90;;;;;;;30.33;50.72;99348.07;107237;1256;60313;-40
2023/08/05 07:51:10;;;;;;;9.00;7.20;;;;;;;30.40;50.31;99346.62;107271;1257;60207;-40
2023/08/05 07:53:37;;;;;;;8.80;7.00;;;;;;;30.48;49.85;99351.75;107295;1257;73853;-41
2023/08/05 07:56:12;;;;;;;8.10;7.30;;;;;;;30.57;50.04;99352.40;107219;1256;68025;-40
2023/08/05 07:58:42;;;;;;;8.40;7.30;;;;;;;30.67;50.07;99358.02;107288;1260;71083;-41
2023/08/05 08:01:12;;;;;;;11.80;7.50;;;;;;;30.75;50.30;99361.34;107190;1260;60057;-40
2023/08/05 08:03:43;;;;;;;7.80;7.00;;;;;;;30.85;50.18;99357.13;107203;1257;60420;-41
2023/08/05 08:06:14;;;;;;;10.80;7.40;;;;;;;30.93;48.59;99351.64;107328;1257;73911;-41
2023/08/05 08:08:42;;;;;;;8.60;7.00;;;;;;;30.96;48.96;99345.25;107271;1257;67940;-41
2023/08/05 08:11:10;;;;;;;12.50;6.90;;;;;;;31.03;49.79;99343.29;107291;1256;72748;-41
2023/08/05 08:13:38;;;;;;;8.20;7.20;;;;;;;31.15;49.46;99336.95;107174;1257;60379;-41
2023/08/05 08:16:07;;;;;;;7.80;6.30;;;;;;;31.28;49.29;99338.55;107256;1256;60086;-40
2023/08/05 08:18:35;;;;;;;7.50;6.40;;;;;;;31.39;48.16;99342.06;107234;1256;74989;-40
2023/08/05 08:21:04;;;;;;;9.50;6.30;;;;;;;31.47;47.23;99340.63;107346;1256;67899;-40
2023/08/05 08:23:40;;;;;;;8.20;6.20;;;;;;;31.52;46.10;99341.10;107172;1257;71536;-41
2023/08/05 08:26:08;;;;;;;9.90;6.40;;;;;;;31.57;46.22;99344.60;107174;1258;59710;-40
2023/08/05 08:28:49;;;;;;;6.20;5.60;;;;;;;31.66;46.08;99344.03;107179;1257;62234;-41
2023/08/05 08:31:17;;;;;;;7.70;5.80;;;;;;;31.74;45.79;99345.14;107178;1260;72262;-40
2023/08/05 08:33:45;;;;;;;9.70;6.60;;;;;;;31.83;46.11;99341.70;107242;1255;67587;-41
2023/08/05 08:36:12;;;;;;;9.80;5.90;;;;;;;31.95;45.26;99346.12;107198;1257;72717;-41
2023/08/05 08:38:40;;;;;;;7.60;6.00;;;;;;;32.04;45.30;99347.02;107080;1257;60447;-41
2023/08/05 08:41:08;;;;;;;8.10;5.90;;;;;;;32.18;44.98;99348.95;107153;1256;60392;-41
2023/08/05 08:43:35;;;;;;;7.20;5.70;;;;;;;32.27;44.48;99344.16;107199;1256;73899;-41
2023/08/05 08:46:07;;;;;;;7.10;5.50;;;;;;;32.34;44.04;99343.77;106973;1257;67095;-41
2023/08/05 08:48:36;;;;;;;8.50;5.60;;;;;;;32.42;43.32;99343.00;107226;1257;72706;-40
2023/08/05 08:51:04;;;;;;;8.20;5.40;;;;;;;32.49;42.51;99348.41;107074;1259;60376;-41
2023/08/05 08:53:32;;;;;;;10.30;5.10;;;;;;;32.56;41.83;99348.05;107038;1257;59695;-39
2023/08/05 08:56:00;;;;;;;6.10;5.40;;;;;;;32.62;41.36;99348.98;107223;1257;72910;-40
2023/08/05 08:58:28;;;;;;;6.50;5.30;;;;;;;32.68;42.19;99349.88;107291;1257;67612;-39
2023/08/05 09:00:56;;;;;;;8.60;4.80;;;;;;;32.74;42.61;99348.80;107130;1256;71487;-40
2023/08/05 09:03:25;;;;;;;6.10;5.40;;;;;;;32.83;42.62;99354.25;106946;1257;60527;-40
2023/08/05 09:05:54;;;;;;;11.30;5.60;;;;;;;32.91;42.35;99356.48;107293;1255;60318;-40
2023/08/05 09:08:22;;;;;;;6.70;5.30;;;;;;;32.93;42.22;99360.16;107252;1257;72641;-40
2023/08/05 09:10:49;;;;;;;7.80;4.90;;;;;;;32.95;43.45;99360.05;107223;1257;66517;-40
2023/08/05 09:13:19;;;;;;;5.50;4.90;;;;;;;33.02;42.91;99364.59;107272;1257;71050;-40
2023/08/05 09:15:47;;;;;;;7.60;4.90;;;;;;;33.05;42.47;99362.45;107234;1257;60062;-40
2023/08/05 09:18:15;;;;;;;6.40;5.50;;;;;;;33.05;41.50;99356.67;107360;1256;60414;-40
2023/08/05 09:20:43;;;;;;;6.80;5.80;;;;;;;32.92;41.82;99360.37;107295;1256;72692;-40
2023/08/05 09:23:10;;;;;;;8.00;5.40;;;;;;;32.76;42.39;99357.17;107333;1260;68016;-40
2023/08/05 09:25:40;;;;;;;12.00;5.70;;;;;;;32.64;43.36;99354.66;107244;1257;73160;-40
2023/08/05 09:28:08;;;;;;;5.90;4.90;;;;;;;32.57;42.97;99356.48;107335;1257;60308;-40
2023/08/05 09:30:36;;;;;;;6.10;5.40;;;;;;;32.54;42.76;99357.05;107191;1256;60268;-40
2023/08/05 09:33:04;;;;;;;7.50;5.20;;;;;;;32.57;43.60;99358.77;107307;1257;72575;-40
2023/08/05 09:35:32;;;;;;;8.70;5.60;;;;;;;32.64;43.63;99356.20;107414;1256;68370;-40
2023/08/05 09:38:01;;;;;;;6.20;4.90;;;;;;;32.68;41.91;99356.25;107162;1256;72793;-40
2023/08/05 09:40:32;;;;;;;;;;;;;;;32.66;41.66;99358.39;107314;1257;60504;-40
2023/08/05 09:43:02;;;;;;;10.10;5.60;;;;;;;32.54;41.67;99350.81;107247;1256;60286;-40
2023/08/05 09:45:33;;;;;;;9.10;5.10;;;;;;;32.48;42.39;99348.52;107296;1256;73831;-40
2023/08/05 09:48:07;;;;;;;7.80;5.20;;;;;;;32.58;42.25;99350.52;107270;1257;67590;-40
2023/08/05 09:50:40;;;;;;;8.10;5.80;;;;;;;32.74;42.24;99352.38;107252;1257;72762;-40
2023/08/05 09:53:09;;;;;;;5.90;5.10;;;;;;;32.86;41.67;99351.39;107310;1256;60389;-40
2023/08/05 09:55:37;;;;;;;7.40;5.50;;;;;;;32.95;41.84;99350.66;107337;1257;60335;-40
2023/08/05 09:58:08;;;;;;;7.80;5.50;;;;;;;33.09;42.06;99349.92;107144;1256;73951;-40
2023/08/05 10:00:37;;;;;;;5.80;5.20;;;;;;;33.23;41.16;99343.23;107276;1257;67613;-40
2023/08/05 10:03:06;;;;;;;7.80;5.70;;;;;;;33.36;41.41;99336.23;107276;1256;72708;-40
2023/08/05 10:05:35;;;;;;;7.20;5.10;;;;;;;33.50;41.00;99340.48;107153;1256;60417;-40
2023/08/05 10:08:05;;;;;;;7.80;5.30;;;;;;;33.62;40.43;99345.03;107388;1257;60438;-40
2023/08/05 10:10:35;;;;;;;6.80;5.50;;;;;;;33.75;39.72;99342.43;107243;1257;73858;-40
2023/08/05 10:13:13;;;;;;;6.50;5.00;;;;;;;33.76;39.18;99341.57;107275;1257;67626;-40
2023/08/05 10:15:41;;;;;;;7.10;5.30;;;;;;;33.76;40.12;99337.67;107155;1257;73221;-40
2023/08/05 10:18:14;;;;;;;11.90;5.50;;;;;;;33.85;39.33;99345.20;107250;1256;60427;-40
2023/08/05 10:20:42;;;;;;;7.50;5.40;;;;;;;33.98;39.49;99341.44;107270;1255;60052;-39
2023/08/05 10:23:13;;;;;;;8.50;5.50;;;;;;;34.14;39.23;99341.66;107188;1256;73999;-40
2023/08/05 10:25:45;;;;;;;7.50;5.10;;;;;;;34.31;38.47;99337.05;107226;1256;67686;-40
2023/08/05 10:28:28;;;;;;;6.70;5.10;;;;;;;34.53;38.15;99339.74;107199;1257;73240;-41
2023/08/05 10:30:55;;;;;;;5.50;4.80;;;;;;;34.76;38.23;99337.72;107197;1257;60505;-41
2023/08/05 10:33:24;;;;;;;7.50;4.80;;;;;;;34.85;37.46;99333.48;107159;1257;60296;-40
2023/08/05 10:36:00;;;;;;;9.40;5.10;;;;;;;34.92;37.96;99331.67;107317;1257;73906;-41
2023/08/05 10:38:30;;;;;;;5.60;4.80;;;;;;;35.10;38.42;99331.85;107224;1256;67940;-40
2023/08/05 10:41:03;;;;;;;7.80;4.60;;;;;;;35.29;37.94;99335.26;107321;1256;72790;-41
2023/08/05 10:43:30;;;;;;;6.80;4.80;;;;;;;35.36;37.21;99329.70;107255;1256;60488;-40
2023/08/05 10:46:06;;;;;;;6.30;4.50;;;;;;;35.34;37.31;99329.21;107224;1255;60498;-41
2023/08/05 10:48:35;;;;;;;6.00;5.30;;;;;;;35.42;36.91;99328.70;107219;1256;73806;-41
2023/08/05 10:51:13;;;;;;;5.60;5.10;;;;;;;35.51;36.96;99319.61;107217;1260;66620;-41
2023/08/05 10:54:05;;;;;;;4.70;4.30;;;;;;;35.65;37.13;99317.91;107253;1257;71374;-41
2023/08/05 10:56:33;;;;;;;6.80;4.70;;;;;;;35.86;36.07;99311.48;107248;1256;61770;-41
2023/08/05 10:59:05;;;;;;;8.90;5.10;;;;;;;35.92;35.71;99315.35;107285;1257;60312;-41
2023/08/05 11:01:59;;;;;;;7.60;5.10;;;;;;;35.99;35.37;99311.80;107302;1260;73861;-41
2023/08/05 11:04:28;;;;;;;6.20;4.70;;;;;;;36.04;35.34;99315.82;107240;1257;67580;-41
2023/08/05 11:06:56;;;;;;;6.80;5.00;;;;;;;36.18;36.04;99311.23;107310;1256;72708;-41
2023/08/05 11:09:24;;;;;;;7.30;4.60;;;;;;;36.36;35.35;99304.21;107331;1256;60485;-40
2023/08/05 11:11:52;;;;;;;8.00;4.90;;;;;;;36.42;35.08;99307.05;107239;1257;59572;-41
2023/08/05 11:14:20;;;;;;;8.70;5.00;;;;;;;36.42;35.28;99300.63;107294;1257;74307;-41
2023/08/05 11:16:48;;;;;;;6.90;4.90;;;;;;;36.45;35.09;99296.92;107230;1257;66272;-41
2023/08/05 11:19:15;;;;;;;5.90;4.80;;;;;;;36.57;34.76;99299.80;107168;1257;72695;-41
2023/08/05 11:21:44;;;;;;;6.60;4.80;;;;;;;36.72;34.70;99294.83;107313;1257;60424;-41
2023/08/05 11:24:18;;;;;;;6.20;4.80;;;;;;;36.89;34.42;99293.09;107297;1255;60058;-41
2023/08/05 11:26:48;;;;;;;9.80;4.90;;;;;;;37.07;34.11;99292.34;107362;1256;72609;-41
2023/08/05 11:29:16;;;;;;;5.60;4.90;;;;;;;37.23;33.91;99286.52;107169;1257;67931;-44
2023/08/05 11:31:51;;;;;;;4.70;4.30;;;;;;;37.37;32.76;99288.29;107209;1257;74602;-41